createdAt,value
2018-04-16T00:00:41.427Z,15.30
2018-04-16T00:03:08.917Z,15.26
2018-04-16T00:05:36.401Z,15.25
2018-04-16T00:08:03.877Z,15.17
2018-04-16T00:10:31.351Z,15.18
2018-04-16T00:12:58.849Z,15.19
2018-04-16T00:15:26.315Z,15.10
2018-04-16T00:17:53.823Z,15.13
2018-04-16T00:20:21.294Z,15.08
2018-04-16T00:22:48.856Z,15.11
2018-04-16T00:25:16.311Z,15.08
2018-04-16T00:27:43.759Z,15.02
2018-04-16T00:30:11.236Z,14.88
2018-04-16T00:35:46.812Z,15.00
2018-04-16T00:38:19.938Z,14.92
2018-04-16T00:40:52.939Z,14.93
2018-04-16T00:43:25.903Z,14.96
2018-04-16T00:45:59.085Z,15.01
2018-04-16T00:48:32.210Z,14.98
2018-04-16T00:51:05.321Z,14.94
2018-04-16T00:53:50.458Z,14.92
2018-04-16T00:56:23.807Z,15.01
2018-04-16T00:58:57.045Z,15.02
2018-04-16T01:01:30.179Z,15.05
2018-04-16T01:04:03.307Z,14.94
2018-04-16T01:09:35.744Z,14.89
2018-04-16T01:12:08.852Z,14.96
2018-04-16T01:14:42.015Z,14.93
2018-04-16T01:17:15.090Z,14.96
2018-04-16T01:19:48.264Z,14.98
2018-04-16T01:22:21.427Z,14.91
2018-04-16T01:24:54.363Z,14.96
2018-04-16T01:27:27.515Z,14.94
2018-04-16T01:30:00.578Z,14.95
2018-04-16T01:32:33.819Z,14.98
2018-04-16T01:35:06.849Z,14.99
2018-04-16T01:37:39.846Z,14.98
2018-04-16T01:40:13.131Z,14.91
2018-04-16T01:42:46.181Z,14.89
2018-04-16T01:45:19.354Z,14.90
2018-04-16T01:47:52.654Z,14.95
2018-04-16T01:50:25.671Z,14.98
2018-04-16T01:52:58.768Z,14.97
2018-04-16T01:55:31.928Z,14.95
2018-04-16T01:58:04.969Z,14.97
2018-04-16T02:00:38.289Z,14.92
2018-04-16T02:03:11.527Z,14.83
2018-04-16T02:05:44.535Z,14.90
2018-04-16T02:08:17.828Z,14.92
2018-04-16T02:10:50.773Z,14.94
2018-04-16T02:13:23.877Z,14.99
2018-04-16T02:15:56.903Z,14.98
2018-04-16T02:18:30.048Z,14.99
2018-04-16T02:21:03.064Z,15.01
2018-04-16T02:23:36.093Z,14.94
2018-04-16T02:26:09.094Z,14.98
2018-04-16T02:28:42.282Z,14.96
2018-04-16T02:31:15.507Z,15.01
2018-04-16T02:33:48.512Z,14.94
2018-04-16T02:36:21.674Z,14.98
2018-04-16T02:38:54.865Z,15.00
2018-04-16T02:41:27.991Z,15.01
2018-04-16T02:44:01.134Z,15.04
2018-04-16T02:46:34.506Z,15.03
2018-04-16T02:49:07.707Z,15.07
2018-04-16T02:51:40.726Z,15.10
2018-04-16T02:54:13.828Z,15.14
2018-04-16T02:56:47.036Z,15.15
2018-04-16T03:02:24.348Z,15.03
2018-04-16T03:04:57.402Z,15.12
2018-04-16T03:07:30.375Z,15.10
2018-04-16T03:10:03.432Z,14.91
2018-04-16T03:12:36.446Z,14.81
2018-04-16T03:15:09.465Z,14.83
2018-04-16T03:17:42.586Z,14.79
2018-04-16T03:20:15.613Z,14.78
2018-04-16T03:22:48.516Z,14.58
2018-04-16T03:25:21.678Z,14.32
2018-04-16T03:30:57.418Z,14.09
2018-04-16T03:33:30.454Z,13.93
2018-04-16T03:36:03.496Z,13.94
2018-04-16T03:38:36.769Z,13.96
2018-04-16T03:41:09.905Z,13.90
2018-04-16T03:43:42.971Z,13.90
2018-04-16T03:46:16.289Z,13.88
2018-04-16T03:48:49.437Z,13.96
2018-04-16T03:54:22.177Z,14.12
2018-04-16T03:56:49.685Z,14.15
2018-04-16T03:59:17.163Z,14.17
2018-04-16T04:01:44.653Z,14.19
2018-04-16T04:04:12.108Z,14.19
2018-04-16T04:06:39.616Z,14.16
2018-04-16T04:09:07.101Z,14.11
2018-04-16T04:11:34.587Z,14.09
2018-04-16T04:14:02.093Z,14.04
2018-04-16T04:16:29.577Z,14.00
2018-04-16T04:18:57.131Z,14.03
2018-04-16T04:21:24.593Z,14.22
2018-04-16T04:24:03.872Z,14.55
2018-04-16T04:26:43.177Z,14.92
2018-04-16T04:29:22.461Z,14.97
2018-04-16T04:31:49.946Z,15.08
2018-04-16T04:34:17.430Z,15.07
2018-04-16T04:36:44.945Z,15.00
2018-04-16T04:39:12.499Z,14.95
2018-04-16T04:41:39.990Z,14.91
2018-04-16T04:44:07.460Z,14.95
2018-04-16T04:46:35.040Z,15.39
2018-04-16T04:49:02.518Z,15.72
2018-04-16T04:51:30.102Z,16.23
2018-04-16T04:53:57.590Z,15.84
2018-04-16T04:56:25.197Z,16.36
2018-04-16T04:58:52.755Z,16.37
2018-04-16T05:01:20.266Z,16.26
2018-04-16T05:03:47.776Z,16.10
2018-04-16T05:06:15.268Z,16.00
2018-04-16T05:08:42.831Z,16.59
2018-04-16T05:11:10.319Z,17.00
2018-04-16T05:13:37.779Z,17.01
2018-04-16T05:16:05.272Z,17.51
2018-04-16T05:18:32.761Z,17.62
2018-04-16T05:21:00.239Z,17.98
2018-04-16T05:23:27.743Z,17.91
2018-04-16T05:25:55.216Z,17.74
2018-04-16T05:28:22.709Z,17.85
2018-04-16T05:30:50.198Z,17.82
2018-04-16T05:33:17.684Z,17.39
2018-04-16T05:35:45.191Z,17.14
2018-04-16T05:38:12.673Z,17.42
2018-04-16T05:40:40.152Z,17.47
2018-04-16T05:43:07.618Z,17.34
2018-04-16T05:45:35.106Z,17.08
2018-04-16T05:48:02.581Z,16.99
2018-04-16T05:50:30.070Z,16.95
2018-04-16T05:52:57.527Z,16.83
2018-04-16T05:55:25.001Z,17.16
2018-04-16T05:57:52.489Z,17.38
2018-04-16T06:00:19.995Z,17.59
2018-04-16T06:02:47.666Z,17.63
2018-04-16T06:05:15.156Z,17.74
2018-04-16T06:07:42.635Z,18.18
2018-04-16T06:10:10.169Z,18.59
2018-04-16T06:12:37.643Z,18.70
2018-04-16T06:15:05.113Z,18.34
2018-04-16T06:17:32.603Z,18.51
2018-04-16T06:20:00.087Z,18.30
2018-04-16T06:22:27.681Z,17.92
2018-04-16T06:24:55.159Z,17.82
2018-04-16T06:27:22.742Z,17.92
2018-04-16T06:29:50.173Z,17.98
2018-04-16T06:32:17.665Z,17.96
2018-04-16T06:34:45.146Z,18.16
2018-04-16T06:37:12.637Z,18.36
2018-04-16T06:39:40.090Z,18.27
2018-04-16T06:42:07.572Z,18.08
2018-04-16T06:44:35.063Z,18.21
2018-04-16T06:47:02.581Z,18.37
2018-04-16T06:49:30.085Z,18.25
2018-04-16T06:51:57.565Z,17.99
2018-04-16T06:54:25.075Z,18.03
2018-04-16T06:56:52.586Z,18.25
2018-04-16T06:59:20.067Z,18.09
2018-04-16T07:01:47.600Z,18.29
2018-04-16T07:04:15.079Z,18.30
2018-04-16T07:06:42.572Z,18.58
2018-04-16T07:09:10.067Z,18.73
2018-04-16T07:11:37.543Z,18.76
2018-04-16T07:14:05.006Z,19.00
2018-04-16T07:16:32.487Z,18.92
2018-04-16T07:18:59.979Z,19.09
2018-04-16T07:21:27.468Z,19.23
2018-04-16T07:23:55.000Z,19.16
2018-04-16T07:26:22.484Z,19.19
2018-04-16T07:28:49.990Z,19.21
2018-04-16T07:31:17.474Z,19.06
2018-04-16T07:33:44.980Z,19.29
2018-04-16T07:36:12.488Z,19.47
2018-04-16T07:38:39.960Z,19.19
2018-04-16T07:41:07.533Z,19.42
2018-04-16T07:43:35.016Z,18.76
2018-04-16T07:46:02.514Z,19.02
2018-04-16T07:48:29.984Z,19.38
2018-04-16T07:50:57.439Z,18.97
2018-04-16T07:53:25.019Z,19.04
2018-04-16T07:55:52.531Z,19.10
2018-04-16T07:58:20.027Z,19.55
2018-04-16T08:00:47.548Z,20.04
2018-04-16T08:03:15.039Z,19.42
2018-04-16T08:05:42.510Z,19.57
2018-04-16T08:08:10.002Z,19.81
2018-04-16T08:10:37.483Z,19.73
2018-04-16T08:13:05.042Z,18.74
2018-04-16T08:15:32.569Z,18.83
2018-04-16T08:18:00.059Z,18.98
2018-04-16T08:20:27.528Z,18.84
2018-04-16T08:22:55.129Z,18.92
2018-04-16T08:25:22.623Z,19.18
2018-04-16T08:27:50.105Z,19.29
2018-04-16T08:30:17.593Z,19.03
2018-04-16T08:32:45.078Z,19.03
2018-04-16T08:35:12.532Z,18.44
2018-04-16T08:37:40.029Z,19.04
2018-04-16T08:40:08.605Z,19.22
2018-04-16T08:42:36.260Z,19.42
2018-04-16T08:45:03.745Z,18.81
2018-04-16T08:47:31.207Z,19.03
2018-04-16T08:49:58.697Z,19.30
2018-04-16T08:52:26.165Z,19.86
2018-04-16T08:54:53.660Z,20.29
2018-04-16T08:57:21.130Z,20.10
2018-04-16T08:59:48.606Z,20.38
2018-04-16T09:02:16.097Z,20.39
2018-04-16T09:04:43.570Z,20.57
2018-04-16T09:07:11.068Z,20.30
2018-04-16T09:09:38.534Z,20.63
2018-04-16T09:12:06.077Z,20.55
2018-04-16T09:14:33.555Z,20.76
2018-04-16T09:17:01.081Z,20.21
2018-04-16T09:19:28.589Z,20.71
2018-04-16T09:21:56.071Z,21.46
2018-04-16T09:24:23.561Z,21.70
2018-04-16T09:26:51.038Z,22.34
2018-04-16T09:29:18.535Z,22.45
2018-04-16T09:31:46.000Z,22.39
2018-04-16T09:34:13.527Z,22.25
2018-04-16T09:36:40.981Z,22.17
2018-04-16T09:39:08.446Z,22.65
2018-04-16T09:41:35.928Z,22.72
2018-04-16T09:44:03.402Z,22.22
2018-04-16T09:46:30.894Z,21.81
2018-04-16T09:48:58.367Z,21.19
2018-04-16T09:51:25.865Z,20.81
2018-04-16T09:53:53.352Z,21.01
2018-04-16T09:56:20.827Z,21.69
2018-04-16T09:58:48.294Z,22.65
2018-04-16T10:01:21.777Z,23.28
2018-04-16T10:03:49.694Z,23.22
2018-04-16T10:06:17.164Z,23.48
2018-04-16T10:08:44.678Z,23.21
2018-04-16T10:11:12.152Z,23.06
2018-04-16T10:13:39.642Z,23.08
2018-04-16T10:16:07.146Z,22.73
2018-04-16T10:18:34.626Z,23.22
2018-04-16T10:21:02.117Z,23.63
2018-04-16T10:23:29.616Z,23.22
2018-04-16T10:25:57.112Z,23.49
2018-04-16T10:28:24.580Z,23.70
2018-04-16T10:30:52.052Z,23.99
2018-04-16T10:33:19.541Z,24.33
2018-04-16T10:35:47.029Z,24.15
2018-04-16T10:38:14.529Z,23.98
2018-04-16T10:40:42.189Z,24.09
2018-04-16T10:43:09.697Z,24.07
2018-04-16T10:45:37.153Z,23.50
2018-04-16T10:48:04.623Z,22.79
2018-04-16T10:50:32.085Z,22.87
2018-04-16T10:52:59.628Z,23.55
2018-04-16T10:55:27.095Z,23.93
2018-04-16T10:57:54.581Z,24.70
2018-04-16T11:00:22.053Z,24.98
2018-04-16T11:02:49.524Z,25.50
2018-04-16T11:05:17.008Z,25.78
2018-04-16T11:07:44.486Z,25.97
2018-04-16T11:10:12.052Z,25.87
2018-04-16T11:12:39.523Z,25.04
2018-04-16T11:15:06.993Z,25.31
2018-04-16T11:17:34.498Z,24.88
2018-04-16T11:20:02.009Z,24.54
2018-04-16T11:22:29.512Z,24.56
2018-04-16T11:24:57.103Z,24.78
2018-04-16T11:27:24.613Z,25.12
2018-04-16T11:29:52.125Z,25.20
2018-04-16T11:32:19.623Z,24.88
2018-04-16T11:34:47.103Z,24.75
2018-04-16T11:37:14.591Z,24.88
2018-04-16T11:39:42.056Z,24.69
2018-04-16T11:42:09.635Z,24.83
2018-04-16T11:44:37.103Z,24.35
2018-04-16T11:47:04.576Z,24.02
2018-04-16T11:49:32.046Z,23.77
2018-04-16T11:51:59.531Z,23.95
2018-04-16T11:54:27.210Z,24.45
2018-04-16T11:56:54.746Z,25.26
2018-04-16T11:59:22.229Z,25.84
2018-04-16T12:01:49.707Z,26.43
2018-04-16T12:04:17.229Z,25.48
2018-04-16T12:06:44.696Z,25.57
2018-04-16T12:09:12.201Z,27.13
2018-04-16T12:11:39.729Z,28.78
2018-04-16T12:14:07.194Z,30.56
2018-04-16T12:16:34.694Z,31.72
2018-04-16T12:19:02.190Z,31.65
2018-04-16T12:21:29.739Z,31.82
2018-04-16T12:23:57.214Z,31.99
2018-04-16T12:26:24.704Z,31.55
2018-04-16T12:28:52.190Z,31.70
2018-04-16T12:31:19.665Z,32.93
2018-04-16T12:33:47.170Z,33.53
2018-04-16T12:36:14.657Z,33.57
2018-04-16T12:38:42.147Z,30.97
2018-04-16T12:41:09.658Z,28.82
2018-04-16T12:43:38.470Z,27.17
2018-04-16T12:46:06.050Z,26.37
2018-04-16T12:48:33.535Z,26.53
2018-04-16T12:51:01.167Z,29.13
2018-04-16T12:53:28.688Z,31.86
2018-04-16T12:55:56.205Z,31.95
2018-04-16T12:58:23.747Z,32.17
2018-04-16T13:00:51.232Z,30.99
2018-04-16T13:03:18.876Z,29.79
2018-04-16T13:05:46.460Z,28.09
2018-04-16T13:08:13.936Z,25.70
2018-04-16T13:10:41.420Z,24.89
2018-04-16T13:13:08.877Z,24.61
2018-04-16T13:15:36.460Z,24.00
2018-04-16T13:18:03.958Z,23.42
2018-04-16T13:20:31.621Z,23.11
2018-04-16T13:22:59.135Z,22.93
2018-04-16T13:25:26.607Z,23.02
2018-04-16T13:27:54.131Z,23.22
2018-04-16T13:30:21.595Z,23.34
2018-04-16T13:32:49.126Z,23.52
2018-04-16T13:35:16.620Z,23.51
2018-04-16T13:37:44.169Z,23.51
2018-04-16T13:40:11.647Z,23.28
2018-04-16T13:42:39.174Z,23.11
2018-04-16T13:45:06.673Z,23.17
2018-04-16T13:47:34.220Z,23.28
2018-04-16T13:50:01.691Z,23.17
2018-04-16T13:52:29.169Z,23.19
2018-04-16T13:54:56.666Z,23.09
2018-04-16T13:57:24.226Z,22.80
2018-04-16T13:59:51.739Z,22.66
2018-04-16T14:02:19.276Z,22.68
2018-04-16T14:04:46.760Z,22.97
2018-04-16T14:07:14.228Z,23.34
2018-04-16T14:09:41.731Z,23.75
2018-04-16T14:12:09.209Z,24.52
2018-04-16T14:14:37.248Z,27.00
2018-04-16T14:17:04.859Z,28.12
2018-04-16T14:19:32.518Z,30.51
2018-04-16T14:22:00.359Z,32.83
2018-04-16T14:24:28.010Z,33.73
2018-04-16T14:26:55.970Z,32.54
2018-04-16T14:29:23.549Z,32.04
2018-04-16T14:31:53.990Z,32.35
2018-04-16T14:34:24.348Z,33.57
2018-04-16T14:36:54.864Z,34.50
2018-04-16T14:39:22.670Z,35.38
2018-04-16T14:41:50.427Z,37.09
2018-04-16T14:44:17.948Z,38.07
2018-04-16T14:46:45.449Z,38.81
2018-04-16T14:49:12.983Z,39.29
2018-04-16T14:51:40.455Z,36.79
2018-04-16T14:54:07.968Z,34.61
2018-04-16T14:56:35.951Z,33.43
2018-04-16T14:59:03.485Z,32.10
2018-04-16T15:01:31.045Z,32.98
2018-04-16T15:03:58.519Z,33.80
2018-04-16T15:06:26.103Z,34.59
2018-04-16T15:08:53.612Z,33.42
2018-04-16T15:11:21.077Z,31.17
2018-04-16T15:13:48.600Z,29.49
2018-04-16T15:16:16.206Z,27.38
2018-04-16T15:18:43.811Z,26.38
2018-04-16T15:21:11.419Z,26.04
2018-04-16T15:23:38.924Z,25.10
2018-04-16T15:26:06.447Z,24.80
2018-04-16T15:28:33.957Z,24.80
2018-04-16T15:31:01.444Z,24.59
2018-04-16T15:33:28.962Z,24.47
2018-04-16T15:35:56.465Z,24.58
2018-04-16T15:38:24.062Z,24.62
2018-04-16T15:40:51.632Z,24.52
2018-04-16T15:43:24.794Z,24.55
2018-04-16T15:45:52.309Z,24.87
2018-04-16T15:48:19.905Z,25.28
2018-04-16T15:50:47.384Z,25.61
2018-04-16T15:53:14.854Z,26.76
2018-04-16T15:55:43.306Z,27.77
2018-04-16T15:58:10.864Z,27.51
2018-04-16T16:00:38.377Z,26.41
2018-04-16T16:03:05.835Z,26.24
2018-04-16T16:05:33.302Z,25.93
2018-04-16T16:08:00.898Z,26.20
2018-04-16T16:10:28.504Z,25.84
2018-04-16T16:12:56.072Z,25.82
2018-04-16T16:15:23.699Z,25.32
2018-04-16T16:17:51.167Z,24.72
2018-04-16T16:20:18.664Z,25.39
2018-04-16T16:22:46.202Z,26.15
2018-04-16T16:25:13.688Z,26.64
2018-04-16T16:27:41.257Z,26.54
2018-04-16T16:30:08.873Z,26.26
2018-04-16T16:32:36.348Z,25.41
2018-04-16T16:35:03.939Z,24.86
2018-04-16T16:37:31.410Z,24.61
2018-04-16T16:39:59.062Z,25.05
2018-04-16T16:42:26.997Z,26.07
2018-04-16T16:44:54.604Z,26.36
2018-04-16T16:47:22.099Z,25.93
2018-04-16T16:49:49.878Z,26.16
2018-04-16T16:52:17.504Z,26.98
2018-04-16T16:54:44.971Z,27.27
2018-04-16T16:57:12.458Z,26.85
2018-04-16T16:59:40.044Z,26.22
2018-04-16T17:02:07.543Z,25.73
2018-04-16T17:04:35.186Z,24.98
2018-04-16T17:07:02.663Z,24.62
2018-04-16T17:09:30.213Z,24.11
2018-04-16T17:11:57.713Z,23.85
2018-04-16T17:14:25.229Z,23.41
2018-04-16T17:16:52.690Z,23.39
2018-04-16T17:19:20.192Z,23.39
2018-04-16T17:21:47.698Z,23.61
2018-04-16T17:24:15.241Z,23.55
2018-04-16T17:26:43.960Z,23.10
2018-04-16T17:29:11.430Z,22.82
2018-04-16T17:31:38.891Z,22.36
2018-04-16T17:34:06.384Z,22.23
2018-04-16T17:36:33.863Z,21.87
2018-04-16T17:39:01.420Z,21.67
2018-04-16T17:41:28.931Z,21.45
2018-04-16T17:43:56.463Z,21.06
2018-04-16T17:46:24.181Z,20.79
2018-04-16T17:48:51.810Z,20.44
2018-04-16T17:51:19.347Z,20.26
2018-04-16T17:53:46.878Z,19.89
2018-04-16T17:56:14.390Z,19.47
2018-04-16T17:58:41.864Z,19.51
2018-04-16T18:01:09.341Z,19.35
2018-04-16T18:03:36.913Z,19.18
2018-04-16T18:06:04.955Z,19.00
2018-04-16T18:08:32.677Z,18.79
2018-04-16T18:11:00.200Z,18.72
2018-04-16T18:13:27.690Z,18.67
2018-04-16T18:15:56.426Z,18.60
2018-04-16T18:18:24.313Z,18.51
2018-04-16T18:20:51.850Z,18.41
2018-04-16T18:23:20.898Z,18.39
2018-04-16T18:25:48.475Z,18.42
2018-04-16T18:28:15.953Z,18.38
2018-04-16T18:30:44.022Z,18.30
2018-04-16T18:33:11.553Z,18.78
2018-04-16T18:35:39.065Z,19.09
2018-04-16T18:38:06.549Z,19.40
2018-04-16T18:40:34.057Z,19.82
2018-04-16T18:43:01.740Z,20.16
2018-04-16T18:45:29.397Z,20.32
2018-04-16T18:47:56.940Z,20.25
2018-04-16T18:50:24.437Z,20.08
2018-04-16T18:52:54.503Z,20.22
2018-04-16T18:55:22.081Z,20.53
2018-04-16T18:57:49.586Z,20.65
2018-04-16T19:00:17.092Z,20.33
2018-04-16T19:02:46.014Z,20.33
2018-04-16T19:05:15.266Z,19.92
2018-04-16T19:07:42.842Z,19.44
2018-04-16T19:10:10.331Z,19.12
2018-04-16T19:12:38.673Z,18.79
2018-04-16T19:15:06.140Z,18.49
2018-04-16T19:20:33.292Z,17.99
2018-04-16T19:23:10.600Z,17.82
2018-04-16T19:25:39.319Z,17.63
2018-04-16T19:28:16.674Z,17.48
2018-04-16T19:30:45.555Z,17.32
2018-04-16T19:33:18.753Z,17.25
2018-04-16T19:35:46.459Z,17.11
2018-04-16T19:38:14.187Z,16.97
2018-04-16T19:40:41.880Z,16.80
2018-04-16T19:43:09.788Z,16.71
2018-04-16T19:45:38.367Z,16.58
2018-04-16T19:48:05.882Z,16.52
2018-04-16T19:50:34.831Z,16.45
2018-04-16T19:53:02.376Z,16.43
2018-04-16T19:58:28.963Z,16.30
2018-04-16T20:00:56.494Z,16.26
2018-04-16T20:03:29.569Z,16.19
2018-04-16T20:05:57.072Z,16.16
2018-04-16T20:08:24.583Z,16.12
2018-04-16T20:10:52.771Z,16.08
2018-04-16T20:13:20.281Z,16.05
2018-04-16T20:15:47.890Z,15.93
2018-04-16T20:18:15.362Z,15.79
2018-04-16T20:20:42.838Z,15.83
2018-04-16T20:23:10.307Z,16.23
2018-04-16T20:25:37.901Z,16.40
2018-04-16T20:28:05.603Z,16.35
2018-04-16T20:30:33.097Z,16.29
2018-04-16T20:33:00.587Z,16.28
2018-04-16T20:35:28.332Z,16.44
2018-04-16T20:38:00.615Z,16.74
2018-04-16T20:40:28.273Z,17.11
2018-04-16T20:42:55.798Z,17.06
2018-04-16T20:45:23.281Z,16.74
2018-04-16T20:47:51.458Z,16.33
2018-04-16T20:50:23.527Z,16.02
2018-04-16T20:52:53.987Z,15.79
2018-04-16T20:55:21.706Z,15.75
2018-04-16T20:57:49.264Z,15.64
2018-04-16T21:00:20.705Z,15.51
2018-04-16T21:02:49.388Z,15.44
2018-04-16T21:05:17.305Z,15.42
2018-04-16T21:07:45.812Z,15.39
2018-04-16T21:10:13.336Z,15.44
2018-04-16T21:12:40.883Z,15.55
2018-04-16T21:15:08.490Z,15.63
2018-04-16T21:17:36.130Z,15.71
2018-04-16T21:20:03.639Z,15.76
2018-04-16T21:22:31.191Z,15.76
2018-04-16T21:24:58.679Z,15.70
2018-04-16T21:27:26.532Z,15.75
2018-04-16T21:29:54.663Z,15.78
2018-04-16T21:32:22.200Z,15.79
2018-04-16T21:34:52.802Z,15.82
2018-04-16T21:37:22.717Z,15.88
2018-04-16T21:39:50.241Z,15.79
2018-04-16T21:42:18.136Z,15.82
2018-04-16T21:44:46.074Z,15.84
2018-04-16T21:47:13.558Z,15.86
2018-04-16T21:49:41.895Z,15.88
2018-04-16T21:52:09.367Z,15.87
2018-04-16T21:54:37.224Z,15.87
2018-04-16T21:57:04.806Z,15.88
2018-04-16T21:59:32.465Z,15.89
2018-04-16T22:02:00.005Z,15.86
2018-04-16T22:04:29.727Z,15.87
2018-04-16T22:06:57.366Z,15.87
2018-04-16T22:09:24.868Z,15.90
2018-04-16T22:11:52.622Z,15.89
2018-04-16T22:14:20.088Z,15.86
2018-04-16T22:16:47.563Z,15.82
2018-04-16T22:19:15.037Z,15.80
2018-04-16T22:21:43.292Z,15.75
2018-04-16T22:24:10.989Z,15.68
2018-04-16T22:26:38.477Z,15.64
2018-04-16T22:29:05.959Z,15.60
2018-04-16T22:31:33.478Z,15.53
2018-04-16T22:34:00.953Z,15.42
2018-04-16T22:36:28.635Z,15.32
2018-04-16T22:38:56.115Z,15.27
2018-04-16T22:41:23.630Z,15.13
2018-04-16T22:43:51.140Z,15.03
2018-04-16T22:46:19.060Z,14.90
2018-04-16T22:48:46.566Z,14.80
2018-04-16T22:51:14.027Z,14.74
2018-04-16T22:53:41.509Z,14.58
2018-04-16T22:56:09.131Z,14.45
2018-04-16T22:58:36.657Z,14.29
2018-04-16T23:01:04.131Z,14.17
2018-04-16T23:03:31.603Z,14.02
2018-04-16T23:05:59.131Z,13.93
2018-04-16T23:08:26.603Z,13.78
2018-04-16T23:10:54.106Z,13.70
2018-04-16T23:13:22.067Z,13.64
2018-04-16T23:15:49.564Z,13.62
2018-04-16T23:18:17.053Z,13.61
2018-04-16T23:20:44.526Z,13.57
2018-04-16T23:23:12.041Z,13.51
2018-04-16T23:25:39.643Z,13.52
2018-04-16T23:28:07.329Z,13.48
2018-04-16T23:30:34.951Z,13.49
2018-04-16T23:33:02.566Z,13.47
2018-04-16T23:35:30.030Z,13.41
2018-04-16T23:37:57.592Z,13.36
2018-04-16T23:40:25.061Z,13.25
2018-04-16T23:42:52.592Z,13.13
2018-04-16T23:45:20.076Z,13.13
2018-04-16T23:47:47.564Z,13.10
2018-04-16T23:50:15.033Z,13.06
2018-04-16T23:52:42.529Z,13.03
2018-04-16T23:55:09.994Z,12.97
2018-04-16T23:57:37.504Z,12.93
